sensor_id;sensor_type;location;lat;lon;timestamp;P1;durP1;ratioP1;P2;durP2;ratioP2
61523;SDS011;47393;38.758;-9.164;2024-03-17T00:01:25;7.38;;;4.35;;
61523;SDS011;47393;38.758;-9.164;2024-03-17T00:03:27;6.22;;;5.72;;
61523;SDS011;47393;38.758;-9.164;2024-03-17T00:05:29;12.43;;;6.47;;
61523;SDS011;47393;38.758;-9.164;2024-03-17T00:07:30;7.13;;;5.35;;
61523;SDS011;47393;38.758;-9.164;2024-03-17T00:09:32;7.72;;;5.40;;
61523;SDS011;47393;38.758;-9.164;2024-03-17T00:11:34;8.98;;;5.72;;
61523;SDS011;47393;38.758;-9.164;2024-03-17T00:13:43;10.52;;;5.47;;
61523;SDS011;47393;38.758;-9.164;2024-03-17T00:15:46;5.38;;;4.22;;
61523;SDS011;47393;38.758;-9.164;2024-03-17T00:17:48;8.52;;;4.68;;
61523;SDS011;47393;38.758;-9.164;2024-03-17T00:19:55;6.03;;;4.40;;
61523;SDS011;47393;38.758;-9.164;2024-03-17T00:21:57;4.93;;;4.47;;
61523;SDS011;47393;38.758;-9.164;2024-03-17T00:24:01;4.97;;;4.57;;
61523;SDS011;47393;38.758;-9.164;2024-03-17T00:26:03;11.73;;;4.90;;
61523;SDS011;47393;38.758;-9.164;2024-03-17T00:28:08;9.40;;;4.90;;
61523;SDS011;47393;38.758;-9.164;2024-03-17T00:30:12;7.28;;;4.47;;
61523;SDS011;47393;38.758;-9.164;2024-03-17T00:32:20;14.20;;;5.53;;
61523;SDS011;47393;38.758;-9.164;2024-03-17T00:34:25;16.73;;;6.20;;
61523;SDS011;47393;38.758;-9.164;2024-03-17T00:36:32;7.65;;;5.65;;
61523;SDS011;47393;38.758;-9.164;2024-03-17T00:38:33;27.35;;;4.68;;
61523;SDS011;47393;38.758;-9.164;2024-03-17T00:40:38;7.22;;;5.10;;
61523;SDS011;47393;38.758;-9.164;2024-03-17T00:42:43;4.70;;;4.40;;
61523;SDS011;47393;38.758;-9.164;2024-03-17T00:44:47;16.08;;;4.68;;
61523;SDS011;47393;38.758;-9.164;2024-03-17T00:46:49;7.60;;;5.70;;
61523;SDS011;47393;38.758;-9.164;2024-03-17T00:48:50;6.15;;;4.30;;
61523;SDS011;47393;38.758;-9.164;2024-03-17T00:50:57;40.17;;;5.72;;
61523;SDS011;47393;38.758;-9.164;2024-03-17T00:53:18;9.98;;;6.88;;
61523;SDS011;47393;38.758;-9.164;2024-03-17T00:55:32;5.72;;;4.22;;
61523;SDS011;47393;38.758;-9.164;2024-03-17T00:57:45;5.45;;;4.95;;
61523;SDS011;47393;38.758;-9.164;2024-03-17T01:00:04;11.50;;;5.05;;
61523;SDS011;47393;38.758;-9.164;2024-03-17T01:02:10;7.47;;;4.97;;
61523;SDS011;47393;38.758;-9.164;2024-03-17T01:04:13;5.97;;;4.47;;
61523;SDS011;47393;38.758;-9.164;2024-03-17T01:06:14;4.70;;;4.50;;
61523;SDS011;47393;38.758;-9.164;2024-03-17T01:08:16;7.80;;;3.70;;
61523;SDS011;47393;38.758;-9.164;2024-03-17T01:10:18;4.10;;;3.72;;
61523;SDS011;47393;38.758;-9.164;2024-03-17T01:12:20;5.90;;;3.90;;
61523;SDS011;47393;38.758;-9.164;2024-03-17T01:14:21;4.57;;;4.05;;
61523;SDS011;47393;38.758;-9.164;2024-03-17T01:16:22;8.75;;;4.68;;
61523;SDS011;47393;38.758;-9.164;2024-03-17T01:18:23;17.98;;;3.67;;
61523;SDS011;47393;38.758;-9.164;2024-03-17T01:20:25;4.35;;;4.03;;
61523;SDS011;47393;38.758;-9.164;2024-03-17T01:22:27;6.70;;;4.43;;
61523;SDS011;47393;38.758;-9.164;2024-03-17T01:24:29;9.25;;;4.57;;
61523;SDS011;47393;38.758;-9.164;2024-03-17T01:26:34;6.00;;;4.93;;
61523;SDS011;47393;38.758;-9.164;2024-03-17T01:28:36;4.82;;;3.65;;
61523;SDS011;47393;38.758;-9.164;2024-03-17T01:30:47;9.43;;;4.65;;
61523;SDS011;47393;38.758;-9.164;2024-03-17T01:32:50;10.43;;;4.00;;
61523;SDS011;47393;38.758;-9.164;2024-03-17T01:34:52;10.40;;;3.78;;
61523;SDS011;47393;38.758;-9.164;2024-03-17T01:36:53;9.43;;;4.10;;
61523;SDS011;47393;38.758;-9.164;2024-03-17T01:38:54;6.82;;;4.45;;
61523;SDS011;47393;38.758;-9.164;2024-03-17T01:40:58;5.80;;;4.07;;
61523;SDS011;47393;38.758;-9.164;2024-03-17T01:42:59;9.52;;;3.78;;
61523;SDS011;47393;38.758;-9.164;2024-03-17T01:45:00;4.40;;;3.47;;
61523;SDS011;47393;38.758;-9.164;2024-03-17T01:47:02;4.30;;;3.75;;
61523;SDS011;47393;38.758;-9.164;2024-03-17T01:49:14;7.32;;;4.55;;
61523;SDS011;47393;38.758;-9.164;2024-03-17T01:51:15;11.50;;;3.47;;
61523;SDS011;47393;38.758;-9.164;2024-03-17T01:53:27;8.02;;;4.13;;
61523;SDS011;47393;38.758;-9.164;2024-03-17T01:55:28;6.05;;;4.20;;
61523;SDS011;47393;38.758;-9.164;2024-03-17T01:57:29;5.32;;;4.72;;
61523;SDS011;47393;38.758;-9.164;2024-03-17T01:59:30;4.53;;;4.22;;
61523;SDS011;47393;38.758;-9.164;2024-03-17T02:01:32;17.30;;;4.72;;
61523;SDS011;47393;38.758;-9.164;2024-03-17T02:03:34;9.93;;;4.38;;
61523;SDS011;47393;38.758;-9.164;2024-03-17T02:05:35;5.10;;;4.38;;
61523;SDS011;47393;38.758;-9.164;2024-03-17T02:07:40;8.10;;;4.75;;
61523;SDS011;47393;38.758;-9.164;2024-03-17T02:09:41;10.55;;;4.15;;
61523;SDS011;47393;38.758;-9.164;2024-03-17T02:11:43;7.68;;;5.10;;
61523;SDS011;47393;38.758;-9.164;2024-03-17T02:13:45;5.72;;;4.35;;
61523;SDS011;47393;38.758;-9.164;2024-03-17T02:15:46;6.78;;;4.15;;
61523;SDS011;47393;38.758;-9.164;2024-03-17T02:17:48;5.07;;;4.05;;
61523;SDS011;47393;38.758;-9.164;2024-03-17T02:19:49;5.72;;;4.10;;
61523;SDS011;47393;38.758;-9.164;2024-03-17T02:21:50;4.57;;;4.15;;
61523;SDS011;47393;38.758;-9.164;2024-03-17T02:23:52;5.60;;;4.00;;
61523;SDS011;47393;38.758;-9.164;2024-03-17T02:25:53;20.08;;;4.07;;
61523;SDS011;47393;38.758;-9.164;2024-03-17T02:27:54;5.00;;;4.07;;
61523;SDS011;47393;38.758;-9.164;2024-03-17T02:29:56;12.18;;;4.78;;
61523;SDS011;47393;38.758;-9.164;2024-03-17T02:32:11;5.15;;;4.20;;
61523;SDS011;47393;38.758;-9.164;2024-03-17T02:34:18;10.10;;;4.78;;
61523;SDS011;47393;38.758;-9.164;2024-03-17T02:36:19;6.05;;;3.72;;
61523;SDS011;47393;38.758;-9.164;2024-03-17T02:38:21;4.28;;;4.07;;
61523;SDS011;47393;38.758;-9.164;2024-03-17T02:40:40;5.10;;;4.43;;
61523;SDS011;47393;38.758;-9.164;2024-03-17T02:42:41;5.15;;;4.78;;
61523;SDS011;47393;38.758;-9.164;2024-03-17T02:44:45;11.98;;;5.93;;
61523;SDS011;47393;38.758;-9.164;2024-03-17T02:46:46;6.95;;;5.03;;
61523;SDS011;47393;38.758;-9.164;2024-03-17T02:48:49;5.07;;;4.68;;
61523;SDS011;47393;38.758;-9.164;2024-03-17T02:50:52;6.93;;;4.70;;
61523;SDS011;47393;38.758;-9.164;2024-03-17T02:52:54;7.78;;;5.43;;
61523;SDS011;47393;38.758;-9.164;2024-03-17T02:54:55;5.57;;;5.07;;
61523;SDS011;47393;38.758;-9.164;2024-03-17T02:56:57;6.03;;;4.78;;
61523;SDS011;47393;38.758;-9.164;2024-03-17T02:58:59;8.45;;;4.57;;
61523;SDS011;47393;38.758;-9.164;2024-03-17T03:01:00;8.50;;;4.53;;
61523;SDS011;47393;38.758;-9.164;2024-03-17T03:03:01;8.18;;;4.93;;
61523;SDS011;47393;38.758;-9.164;2024-03-17T03:05:02;7.45;;;5.38;;
61523;SDS011;47393;38.758;-9.164;2024-03-17T03:07:03;8.23;;;4.80;;
61523;SDS011;47393;38.758;-9.164;2024-03-17T03:09:05;5.07;;;4.57;;
61523;SDS011;47393;38.758;-9.164;2024-03-17T03:11:31;4.72;;;4.43;;
61523;SDS011;47393;38.758;-9.164;2024-03-17T03:13:33;6.05;;;3.88;;
61523;SDS011;47393;38.758;-9.164;2024-03-17T03:15:39;5.15;;;4.65;;
61523;SDS011;47393;38.758;-9.164;2024-03-17T03:17:44;14.52;;;5.25;;
61523;SDS011;47393;38.758;-9.164;2024-03-17T03:19:45;5.28;;;4.53;;
61523;SDS011;47393;38.758;-9.164;2024-03-17T03:21:46;4.88;;;4.50;;
61523;SDS011;47393;38.758;-9.164;2024-03-17T03:23:47;12.10;;;5.03;;
61523;SDS011;47393;38.758;-9.164;2024-03-17T03:25:54;5.82;;;5.22;;
61523;SDS011;47393;38.758;-9.164;2024-03-17T03:27:56;9.40;;;4.45;;
61523;SDS011;47393;38.758;-9.164;2024-03-17T03:29:58;5.90;;;4.60;;
61523;SDS011;47393;38.758;-9.164;2024-03-17T03:32:00;5.10;;;4.75;;
61523;SDS011;47393;38.758;-9.164;2024-03-17T03:34:02;6.28;;;4.47;;
61523;SDS011;47393;38.758;-9.164;2024-03-17T03:36:08;14.30;;;4.88;;
61523;SDS011;47393;38.758;-9.164;2024-03-17T03:38:32;5.45;;;4.95;;
61523;SDS011;47393;38.758;-9.164;2024-03-17T03:40:34;10.57;;;4.68;;
61523;SDS011;47393;38.758;-9.164;2024-03-17T03:42:48;11.13;;;4.72;;
61523;SDS011;47393;38.758;-9.164;2024-03-17T03:44:50;5.65;;;4.10;;
61523;SDS011;47393;38.758;-9.164;2024-03-17T03:46:57;7.50;;;4.82;;
61523;SDS011;47393;38.758;-9.164;2024-03-17T03:49:13;14.07;;;5.28;;
61523;SDS011;47393;38.758;-9.164;2024-03-17T03:51:19;10.95;;;6.32;;
61523;SDS011;47393;38.758;-9.164;2024-03-17T03:53:40;5.53;;;5.13;;
61523;SDS011;47393;38.758;-9.164;2024-03-17T03:56:26;6.40;;;5.80;;
61523;SDS011;47393;38.758;-9.164;2024-03-17T03:59:00;14.27;;;5.50;;
61523;SDS011;47393;38.758;-9.164;2024-03-17T04:01:44;12.13;;;5.13;;
61523;SDS011;47393;38.758;-9.164;2024-03-17T04:04:08;5.65;;;5.25;;
61523;SDS011;47393;38.758;-9.164;2024-03-17T04:07:01;6.65;;;4.53;;
61523;SDS011;47393;38.758;-9.164;2024-03-17T04:09:08;5.82;;;4.80;;
61523;SDS011;47393;38.758;-9.164;2024-03-17T04:11:20;18.95;;;6.28;;
61523;SDS011;47393;38.758;-9.164;2024-03-17T04:13:26;12.87;;;6.00;;
61523;SDS011;47393;38.758;-9.164;2024-03-17T04:15:29;9.32;;;5.20;;
61523;SDS011;47393;38.758;-9.164;2024-03-17T04:17:30;5.80;;;4.80;;
61523;SDS011;47393;38.758;-9.164;2024-03-17T04:19:32;12.30;;;6.20;;
61523;SDS011;47393;38.758;-9.164;2024-03-17T04:21:33;8.82;;;4.88;;
61523;SDS011;47393;38.758;-9.164;2024-03-17T04:23:34;6.85;;;4.30;;
61523;SDS011;47393;38.758;-9.164;2024-03-17T04:25:35;5.38;;;4.03;;
61523;SDS011;47393;38.758;-9.164;2024-03-17T04:27:38;10.88;;;4.47;;
61523;SDS011;47393;38.758;-9.164;2024-03-17T04:29:39;11.65;;;3.95;;
61523;SDS011;47393;38.758;-9.164;2024-03-17T04:31:54;3.25;;;3.05;;
61523;SDS011;47393;38.758;-9.164;2024-03-17T04:33:55;4.00;;;3.67;;
61523;SDS011;47393;38.758;-9.164;2024-03-17T04:35:56;17.30;;;3.53;;
61523;SDS011;47393;38.758;-9.164;2024-03-17T04:37:57;4.38;;;3.40;;
61523;SDS011;47393;38.758;-9.164;2024-03-17T04:39:58;4.53;;;4.13;;
61523;SDS011;47393;38.758;-9.164;2024-03-17T04:41:59;2.72;;;2.55;;
61523;SDS011;47393;38.758;-9.164;2024-03-17T04:44:00;4.30;;;3.78;;
61523;SDS011;47393;38.758;-9.164;2024-03-17T04:46:02;3.33;;;3.05;;
61523;SDS011;47393;38.758;-9.164;2024-03-17T04:48:05;13.95;;;4.55;;
61523;SDS011;47393;38.758;-9.164;2024-03-17T04:50:07;35.70;;;4.50;;
61523;SDS011;47393;38.758;-9.164;2024-03-17T04:52:10;4.57;;;4.18;;
61523;SDS011;47393;38.758;-9.164;2024-03-17T04:54:12;4.38;;;4.13;;
61523;SDS011;47393;38.758;-9.164;2024-03-17T04:56:13;7.72;;;4.10;;
61523;SDS011;47393;38.758;-9.164;2024-03-17T04:58:14;7.25;;;4.22;;
61523;SDS011;47393;38.758;-9.164;2024-03-17T05:00:15;5.53;;;4.45;;
61523;SDS011;47393;38.758;-9.164;2024-03-17T05:02:18;6.65;;;4.30;;
61523;SDS011;47393;38.758;-9.164;2024-03-17T05:04:19;7.43;;;4.45;;
61523;SDS011;47393;38.758;-9.164;2024-03-17T05:06:21;4.80;;;4.40;;
61523;SDS011;47393;38.758;-9.164;2024-03-17T05:08:32;4.13;;;3.70;;
61523;SDS011;47393;38.758;-9.164;2024-03-17T05:10:35;10.13;;;4.80;;
61523;SDS011;47393;38.758;-9.164;2024-03-17T05:12:39;12.20;;;5.20;;
61523;SDS011;47393;38.758;-9.164;2024-03-17T05:14:40;5.53;;;4.18;;
61523;SDS011;47393;38.758;-9.164;2024-03-17T05:16:51;12.95;;;5.60;;
61523;SDS011;47393;38.758;-9.164;2024-03-17T05:18:53;6.78;;;5.93;;
61523;SDS011;47393;38.758;-9.164;2024-03-17T05:21:01;4.20;;;4.00;;
61523;SDS011;47393;38.758;-9.164;2024-03-17T05:23:04;12.07;;;5.03;;
61523;SDS011;47393;38.758;-9.164;2024-03-17T05:25:05;5.38;;;4.95;;
61523;SDS011;47393;38.758;-9.164;2024-03-17T05:27:07;8.10;;;6.38;;
61523;SDS011;47393;38.758;-9.164;2024-03-17T05:29:11;13.27;;;5.95;;
61523;SDS011;47393;38.758;-9.164;2024-03-17T05:31:13;7.80;;;5.32;;
61523;SDS011;47393;38.758;-9.164;2024-03-17T05:33:18;16.58;;;5.78;;
61523;SDS011;47393;38.758;-9.164;2024-03-17T05:35:21;22.17;;;7.07;;
61523;SDS011;47393;38.758;-9.164;2024-03-17T05:37:23;6.03;;;5.43;;
61523;SDS011;47393;38.758;-9.164;2024-03-17T05:39:24;12.73;;;7.03;;
61523;SDS011;47393;38.758;-9.164;2024-03-17T05:41:25;10.02;;;6.05;;
61523;SDS011;47393;38.758;-9.164;2024-03-17T05:43:27;8.23;;;6.40;;
61523;SDS011;47393;38.758;-9.164;2024-03-17T05:45:28;6.72;;;5.75;;
61523;SDS011;47393;38.758;-9.164;2024-03-17T05:47:29;7.25;;;5.95;;
61523;SDS011;47393;38.758;-9.164;2024-03-17T05:49:31;18.33;;;6.07;;
61523;SDS011;47393;38.758;-9.164;2024-03-17T05:51:32;24.65;;;5.32;;
61523;SDS011;47393;38.758;-9.164;2024-03-17T05:53:33;7.00;;;6.07;;
61523;SDS011;47393;38.758;-9.164;2024-03-17T05:55:35;8.52;;;7.57;;
61523;SDS011;47393;38.758;-9.164;2024-03-17T05:57:38;16.58;;;5.47;;
61523;SDS011;47393;38.758;-9.164;2024-03-17T05:59:39;9.70;;;5.43;;
61523;SDS011;47393;38.758;-9.164;2024-03-17T06:01:40;7.47;;;5.82;;
61523;SDS011;47393;38.758;-9.164;2024-03-17T06:03:42;17.50;;;5.93;;
61523;SDS011;47393;38.758;-9.164;2024-03-17T06:05:43;11.25;;;6.45;;
61523;SDS011;47393;38.758;-9.164;2024-03-17T06:07:47;6.85;;;6.03;;
61523;SDS011;47393;38.758;-9.164;2024-03-17T06:09:48;10.93;;;5.85;;
61523;SDS011;47393;38.758;-9.164;2024-03-17T06:11:50;19.98;;;7.15;;
61523;SDS011;47393;38.758;-9.164;2024-03-17T06:13:51;7.55;;;6.15;;
61523;SDS011;47393;38.758;-9.164;2024-03-17T06:15:52;6.78;;;6.03;;
61523;SDS011;47393;38.758;-9.164;2024-03-17T06:17:53;18.63;;;6.68;;
61523;SDS011;47393;38.758;-9.164;2024-03-17T06:19:54;10.10;;;6.57;;
61523;SDS011;47393;38.758;-9.164;2024-03-17T06:21:57;20.58;;;6.15;;
61523;SDS011;47393;38.758;-9.164;2024-03-17T06:23:58;12.02;;;7.25;;
61523;SDS011;47393;38.758;-9.164;2024-03-17T06:25:59;6.90;;;6.30;;
61523;SDS011;47393;38.758;-9.164;2024-03-17T06:28:02;8.95;;;7.57;;
61523;SDS011;47393;38.758;-9.164;2024-03-17T06:30:10;8.35;;;7.35;;
61523;SDS011;47393;38.758;-9.164;2024-03-17T06:32:17;8.40;;;7.03;;
61523;SDS011;47393;38.758;-9.164;2024-03-17T06:34:18;9.30;;;7.20;;
61523;SDS011;47393;38.758;-9.164;2024-03-17T06:36:19;12.93;;;6.95;;
61523;SDS011;47393;38.758;-9.164;2024-03-17T06:38:20;17.85;;;6.18;;
61523;SDS011;47393;38.758;-9.164;2024-03-17T06:40:22;15.55;;;7.57;;
61523;SDS011;47393;38.758;-9.164;2024-03-17T06:42:23;9.95;;;6.20;;
61523;SDS011;47393;38.758;-9.164;2024-03-17T06:44:25;16.63;;;7.88;;
61523;SDS011;47393;38.758;-9.164;2024-03-17T06:46:30;12.93;;;7.90;;
61523;SDS011;47393;38.758;-9.164;2024-03-17T06:48:31;34.70;;;7.72;;
61523;SDS011;47393;38.758;-9.164;2024-03-17T06:50:33;7.70;;;6.03;;
61523;SDS011;47393;38.758;-9.164;2024-03-17T06:52:34;9.13;;;6.80;;
61523;SDS011;47393;38.758;-9.164;2024-03-17T06:54:35;11.10;;;5.75;;
61523;SDS011;47393;38.758;-9.164;2024-03-17T06:56:36;15.48;;;6.18;;
61523;SDS011;47393;38.758;-9.164;2024-03-17T06:58:38;31.13;;;7.25;;
61523;SDS011;47393;38.758;-9.164;2024-03-17T07:00:39;8.18;;;6.45;;
61523;SDS011;47393;38.758;-9.164;2024-03-17T07:02:40;7.63;;;6.72;;
61523;SDS011;47393;38.758;-9.164;2024-03-17T07:04:44;7.20;;;6.47;;
61523;SDS011;47393;38.758;-9.164;2024-03-17T07:06:45;9.82;;;6.18;;
61523;SDS011;47393;38.758;-9.164;2024-03-17T07:08:46;6.40;;;5.78;;
61523;SDS011;47393;38.758;-9.164;2024-03-17T07:11:00;6.05;;;5.47;;
61523;SDS011;47393;38.758;-9.164;2024-03-17T07:13:03;6.70;;;6.13;;
61523;SDS011;47393;38.758;-9.164;2024-03-17T07:15:05;7.10;;;6.50;;
61523;SDS011;47393;38.758;-9.164;2024-03-17T07:17:06;10.55;;;7.50;;
61523;SDS011;47393;38.758;-9.164;2024-03-17T07:19:07;9.10;;;6.72;;
61523;SDS011;47393;38.758;-9.164;2024-03-17T07:21:12;8.27;;;7.57;;
61523;SDS011;47393;38.758;-9.164;2024-03-17T07:23:15;11.30;;;7.07;;
61523;SDS011;47393;38.758;-9.164;2024-03-17T07:25:16;7.53;;;6.78;;
61523;SDS011;47393;38.758;-9.164;2024-03-17T07:27:22;6.35;;;5.63;;
61523;SDS011;47393;38.758;-9.164;2024-03-17T07:29:23;7.25;;;5.55;;
61523;SDS011;47393;38.758;-9.164;2024-03-17T07:31:25;7.65;;;5.10;;
61523;SDS011;47393;38.758;-9.164;2024-03-17T07:33:26;7.47;;;6.80;;
61523;SDS011;47393;38.758;-9.164;2024-03-17T07:35:30;8.82;;;6.22;;
61523;SDS011;47393;38.758;-9.164;2024-03-17T07:39:59;5.82;;;5.18;;
61523;SDS011;47393;38.758;-9.164;2024-03-17T07:42:04;17.02;;;6.85;;
61523;SDS011;47393;38.758;-9.164;2024-03-17T07:44:13;16.25;;;6.28;;
61523;SDS011;47393;38.758;-9.164;2024-03-17T07:47:12;8.63;;;5.55;;
61523;SDS011;47393;38.758;-9.164;2024-03-17T07:49:37;7.05;;;5.68;;
61523;SDS011;47393;38.758;-9.164;2024-03-17T07:51:42;5.50;;;4.97;;
61523;SDS011;47393;38.758;-9.164;2024-03-17T07:53:55;7.10;;;4.93;;
61523;SDS011;47393;38.758;-9.164;2024-03-17T07:56:47;5.07;;;4.68;;
61523;SDS011;47393;38.758;-9.164;2024-03-17T07:58:51;9.48;;;6.63;;
61523;SDS011;47393;38.758;-9.164;2024-03-17T08:01:18;7.18;;;6.38;;
61523;SDS011;47393;38.758;-9.164;2024-03-17T08:04:19;8.10;;;5.80;;
61523;SDS011;47393;38.758;-9.164;2024-03-17T08:06:56;13.40;;;5.68;;
61523;SDS011;47393;38.758;-9.164;2024-03-17T08:09:39;14.48;;;5.40;;
61523;SDS011;47393;38.758;-9.164;2024-03-17T08:12:39;5.93;;;5.50;;
61523;SDS011;47393;38.758;-9.164;2024-03-17T08:15:39;6.25;;;4.95;;
61523;SDS011;47393;38.758;-9.164;2024-03-17T08:18:23;5.93;;;5.18;;
61523;SDS011;47393;38.758;-9.164;2024-03-17T08:20:39;5.93;;;5.45;;
61523;SDS011;47393;38.758;-9.164;2024-03-17T08:22:57;7.80;;;6.13;;
61523;SDS011;47393;38.758;-9.164;2024-03-17T08:25:02;7.90;;;7.13;;
61523;SDS011;47393;38.758;-9.164;2024-03-17T08:27:05;7.95;;;7.13;;
61523;SDS011;47393;38.758;-9.164;2024-03-17T08:29:07;7.80;;;7.00;;
61523;SDS011;47393;38.758;-9.164;2024-03-17T08:31:08;6.88;;;6.28;;
61523;SDS011;47393;38.758;-9.164;2024-03-17T08:33:09;8.02;;;5.32;;
61523;SDS011;47393;38.758;-9.164;2024-03-17T08:35:11;12.48;;;6.93;;
61523;SDS011;47393;38.758;-9.164;2024-03-17T08:37:12;8.00;;;7.20;;
61523;SDS011;47393;38.758;-9.164;2024-03-17T08:39:13;7.38;;;6.68;;
61523;SDS011;47393;38.758;-9.164;2024-03-17T08:41:14;6.03;;;5.63;;
61523;SDS011;47393;38.758;-9.164;2024-03-17T08:43:16;7.25;;;6.57;;
61523;SDS011;47393;38.758;-9.164;2024-03-17T08:45:17;14.77;;;7.57;;
61523;SDS011;47393;38.758;-9.164;2024-03-17T08:47:25;7.32;;;6.72;;
61523;SDS011;47393;38.758;-9.164;2024-03-17T08:49:26;11.32;;;7.20;;
61523;SDS011;47393;38.758;-9.164;2024-03-17T08:51:39;8.65;;;7.10;;
61523;SDS011;47393;38.758;-9.164;2024-03-17T08:53:43;12.40;;;6.97;;
61523;SDS011;47393;38.758;-9.164;2024-03-17T08:55:46;10.82;;;7.45;;
61523;SDS011;47393;38.758;-9.164;2024-03-17T08:57:48;7.88;;;6.43;;
61523;SDS011;47393;38.758;-9.164;2024-03-17T08:59:50;6.93;;;6.20;;
61523;SDS011;47393;38.758;-9.164;2024-03-17T09:02:02;5.85;;;5.45;;
61523;SDS011;47393;38.758;-9.164;2024-03-17T09:04:17;7.50;;;5.70;;
61523;SDS011;47393;38.758;-9.164;2024-03-17T09:06:20;6.20;;;5.70;;
61523;SDS011;47393;38.758;-9.164;2024-03-17T09:08:22;5.57;;;5.07;;
61523;SDS011;47393;38.758;-9.164;2024-03-17T09:10:28;5.68;;;5.03;;
61523;SDS011;47393;38.758;-9.164;2024-03-17T09:12:29;5.85;;;5.20;;
61523;SDS011;47393;38.758;-9.164;2024-03-17T09:14:30;5.45;;;4.82;;
61523;SDS011;47393;38.758;-9.164;2024-03-17T09:16:34;5.50;;;4.93;;
61523;SDS011;47393;38.758;-9.164;2024-03-17T09:18:36;4.85;;;4.47;;
61523;SDS011;47393;38.758;-9.164;2024-03-17T09:20:38;6.20;;;4.78;;
61523;SDS011;47393;38.758;-9.164;2024-03-17T09:22:39;5.53;;;5.03;;
61523;SDS011;47393;38.758;-9.164;2024-03-17T09:24:40;5.22;;;4.65;;
61523;SDS011;47393;38.758;-9.164;2024-03-17T09:26:42;4.82;;;3.65;;
61523;SDS011;47393;38.758;-9.164;2024-03-17T09:28:59;5.75;;;4.57;;
61523;SDS011;47393;38.758;-9.164;2024-03-17T09:31:00;4.47;;;4.13;;
61523;SDS011;47393;38.758;-9.164;2024-03-17T09:33:03;4.35;;;4.05;;
61523;SDS011;47393;38.758;-9.164;2024-03-17T09:35:05;5.07;;;3.45;;
61523;SDS011;47393;38.758;-9.164;2024-03-17T09:37:07;4.72;;;4.32;;
61523;SDS011;47393;38.758;-9.164;2024-03-17T09:39:34;4.30;;;3.75;;
61523;SDS011;47393;38.758;-9.164;2024-03-17T09:41:40;5.80;;;4.13;;
61523;SDS011;47393;38.758;-9.164;2024-03-17T09:43:42;6.65;;;4.05;;
61523;SDS011;47393;38.758;-9.164;2024-03-17T09:45:52;16.75;;;4.22;;
61523;SDS011;47393;38.758;-9.164;2024-03-17T09:48:09;4.47;;;4.15;;
61523;SDS011;47393;38.758;-9.164;2024-03-17T09:50:51;9.07;;;3.40;;
61523;SDS011;47393;38.758;-9.164;2024-03-17T09:53:33;3.55;;;3.35;;
61523;SDS011;47393;38.758;-9.164;2024-03-17T09:56:33;7.25;;;4.20;;
61523;SDS011;47393;38.758;-9.164;2024-03-17T09:59:25;8.27;;;4.32;;
61523;SDS011;47393;38.758;-9.164;2024-03-17T10:02:25;4.10;;;3.75;;
61523;SDS011;47393;38.758;-9.164;2024-03-17T10:05:36;4.53;;;4.15;;
61523;SDS011;47393;38.758;-9.164;2024-03-17T10:08:02;5.82;;;5.10;;
61523;SDS011;47393;38.758;-9.164;2024-03-17T10:11:04;4.97;;;4.10;;
61523;SDS011;47393;38.758;-9.164;2024-03-17T10:14:06;4.32;;;3.95;;
61523;SDS011;47393;38.758;-9.164;2024-03-17T10:17:10;4.30;;;3.97;;
61523;SDS011;47393;38.758;-9.164;2024-03-17T10:20:31;3.75;;;3.55;;
61523;SDS011;47393;38.758;-9.164;2024-03-17T10:23:35;4.05;;;3.70;;
61523;SDS011;47393;38.758;-9.164;2024-03-17T10:26:25;3.80;;;3.60;;
61523;SDS011;47393;38.758;-9.164;2024-03-17T10:32:26;9.55;;;3.22;;
61523;SDS011;47393;38.758;-9.164;2024-03-17T10:35:33;3.88;;;3.45;;
61523;SDS011;47393;38.758;-9.164;2024-03-17T10:38:07;4.57;;;3.95;;
61523;SDS011;47393;38.758;-9.164;2024-03-17T10:40:23;7.40;;;3.58;;
61523;SDS011;47393;38.758;-9.164;2024-03-17T10:42:26;4.22;;;3.67;;
61523;SDS011;47393;38.758;-9.164;2024-03-17T10:44:29;3.63;;;3.50;;
61523;SDS011;47393;38.758;-9.164;2024-03-17T10:46:32;3.67;;;3.47;;
61523;SDS011;47393;38.758;-9.164;2024-03-17T10:48:34;11.35;;;3.35;;
61523;SDS011;47393;38.758;-9.164;2024-03-17T10:50:40;3.25;;;3.05;;
61523;SDS011;47393;38.758;-9.164;2024-03-17T10:53:04;3.00;;;2.80;;
61523;SDS011;47393;38.758;-9.164;2024-03-17T10:55:50;2.95;;;2.85;;
61523;SDS011;47393;38.758;-9.164;2024-03-17T11:00:57;3.40;;;2.97;;
61523;SDS011;47393;38.758;-9.164;2024-03-17T11:04:00;3.22;;;2.92;;
61523;SDS011;47393;38.758;-9.164;2024-03-17T11:07:01;3.15;;;2.83;;
61523;SDS011;47393;38.758;-9.164;2024-03-17T11:09:49;2.83;;;2.45;;
61523;SDS011;47393;38.758;-9.164;2024-03-17T11:12:54;2.80;;;2.60;;
61523;SDS011;47393;38.758;-9.164;2024-03-17T11:14:44;2.65;;;2.53;;
61523;SDS011;47393;38.758;-9.164;2024-03-17T11:17:20;2.88;;;2.63;;
61523;SDS011;47393;38.758;-9.164;2024-03-17T11:24:44;4.68;;;2.90;;
61523;SDS011;47393;38.758;-9.164;2024-03-17T11:26:46;2.70;;;2.50;;
61523;SDS011;47393;38.758;-9.164;2024-03-17T11:28:53;3.40;;;3.17;;
61523;SDS011;47393;38.758;-9.164;2024-03-17T11:30:55;3.97;;;3.55;;
61523;SDS011;47393;38.758;-9.164;2024-03-17T11:35:30;2.58;;;2.47;;
61523;SDS011;47393;38.758;-9.164;2024-03-17T11:41:44;8.98;;;2.63;;
61523;SDS011;47393;38.758;-9.164;2024-03-17T11:46:19;6.63;;;2.35;;
61523;SDS011;47393;38.758;-9.164;2024-03-17T11:48:41;2.97;;;2.42;;
61523;SDS011;47393;38.758;-9.164;2024-03-17T11:50:45;3.50;;;2.70;;
61523;SDS011;47393;38.758;-9.164;2024-03-17T11:52:59;3.00;;;2.80;;
61523;SDS011;47393;38.758;-9.164;2024-03-17T11:55:01;5.78;;;1.90;;
61523;SDS011;47393;38.758;-9.164;2024-03-17T11:57:05;2.80;;;2.60;;
61523;SDS011;47393;38.758;-9.164;2024-03-17T11:59:11;2.33;;;2.08;;
61523;SDS011;47393;38.758;-9.164;2024-03-17T12:01:29;2.05;;;1.95;;
61523;SDS011;47393;38.758;-9.164;2024-03-17T12:04:00;2.00;;;1.90;;
61523;SDS011;47393;38.758;-9.164;2024-03-17T12:06:05;2.30;;;2.20;;
61523;SDS011;47393;38.758;-9.164;2024-03-17T12:08:20;2.10;;;2.00;;
61523;SDS011;47393;38.758;-9.164;2024-03-17T12:10:21;4.72;;;1.80;;
61523;SDS011;47393;38.758;-9.164;2024-03-17T12:12:24;1.90;;;1.80;;
61523;SDS011;47393;38.758;-9.164;2024-03-17T12:14:35;2.30;;;2.10;;
61523;SDS011;47393;38.758;-9.164;2024-03-17T12:16:38;2.10;;;2.00;;
61523;SDS011;47393;38.758;-9.164;2024-03-17T12:18:40;1.23;;;1.23;;
61523;SDS011;47393;38.758;-9.164;2024-03-17T12:20:47;2.00;;;1.90;;
61523;SDS011;47393;38.758;-9.164;2024-03-17T12:22:49;2.75;;;2.22;;
61523;SDS011;47393;38.758;-9.164;2024-03-17T12:24:52;1.63;;;1.52;;
61523;SDS011;47393;38.758;-9.164;2024-03-17T12:26:54;1.63;;;1.63;;
61523;SDS011;47393;38.758;-9.164;2024-03-17T12:28:56;1.67;;;1.30;;
61523;SDS011;47393;38.758;-9.164;2024-03-17T12:30:59;1.85;;;1.75;;
61523;SDS011;47393;38.758;-9.164;2024-03-17T12:33:01;1.98;;;1.88;;
61523;SDS011;47393;38.758;-9.164;2024-03-17T12:35:02;1.50;;;1.50;;
61523;SDS011;47393;38.758;-9.164;2024-03-17T12:37:17;1.88;;;1.77;;
61523;SDS011;47393;38.758;-9.164;2024-03-17T12:39:22;7.78;;;1.90;;
61523;SDS011;47393;38.758;-9.164;2024-03-17T12:41:26;2.28;;;2.10;;
61523;SDS011;47393;38.758;-9.164;2024-03-17T12:43:27;2.28;;;2.17;;
61523;SDS011;47393;38.758;-9.164;2024-03-17T12:45:28;1.60;;;1.50;;
61523;SDS011;47393;38.758;-9.164;2024-03-17T12:47:29;1.67;;;1.60;;
61523;SDS011;47393;38.758;-9.164;2024-03-17T12:49:32;1.30;;;1.30;;
61523;SDS011;47393;38.758;-9.164;2024-03-17T12:51:37;3.58;;;1.60;;
61523;SDS011;47393;38.758;-9.164;2024-03-17T12:53:40;2.40;;;1.70;;
61523;SDS011;47393;38.758;-9.164;2024-03-17T12:55:42;1.83;;;1.55;;
61523;SDS011;47393;38.758;-9.164;2024-03-17T12:58:19;4.13;;;1.83;;
61523;SDS011;47393;38.758;-9.164;2024-03-17T13:00:39;1.65;;;1.55;;
61523;SDS011;47393;38.758;-9.164;2024-03-17T13:02:44;1.40;;;1.40;;
61523;SDS011;47393;38.758;-9.164;2024-03-17T13:04:45;3.40;;;1.70;;
61523;SDS011;47393;38.758;-9.164;2024-03-17T13:06:46;2.13;;;2.03;;